Time;durP1;ratioP1;P1;durP2;ratioP2;P2;SDS_P1;SDS_P2;PMS_P1;PMS_P2;Temp;Humidity;BMP_temperature;BMP_pressure;BME280_temperature;BME280_humidity;BME280_pressure;Samples;Min_cycle;Max_cycle;Signal;HPM_P1;HPM_P2
2021/04/14 00:00:33;;;;;;;0.17;0.10;;;4.10;85.70;;;;;;5024385;28;20014;-73
2021/04/14 00:03:00;;;;;;;0.30;0.20;;;4.10;86.00;;;;;;4991520;28;20010;-73
2021/04/14 00:05:28;;;;;;;0.75;0.28;;;4.10;86.30;;;;;;5024034;28;20010;-73
2021/04/14 00:07:54;;;;;;;0.40;0.20;;;4.10;86.30;;;;;;5007857;28;20009;-74
2021/04/14 00:10:21;;;;;;;0.32;0.20;;;4.10;86.50;;;;;;5007456;28;20037;-74
2021/04/14 00:12:47;;;;;;;0.85;0.52;;;4.10;86.50;;;;;;5007651;28;20013;-73
2021/04/14 00:15:18;;;;;;;0.35;0.30;;;4.10;87.20;;;;;;5007274;28;20092;-73
2021/04/14 00:17:44;;;;;;;0.77;0.32;;;4.10;87.50;;;;;;5007355;28;20041;-73
2021/04/14 00:20:10;;;;;;;0.68;0.43;;;4.10;87.80;;;;;;5007144;28;20018;-73
2021/04/14 00:22:36;;;;;;;0.20;0.20;;;4.10;87.80;;;;;;5023652;28;20070;-73
2021/04/14 00:25:02;;;;;;;1.20;0.40;;;4.20;87.50;;;;;;5020032;28;20017;-73
2021/04/14 00:27:28;;;;;;;1.27;0.38;;;4.20;87.60;;;;;;5004716;28;20268;-74
2021/04/14 00:29:54;;;;;;;0.30;0.30;;;4.20;87.80;;;;;;5010370;28;20022;-74
2021/04/14 00:32:19;;;;;;;0.88;0.50;;;4.20;87.90;;;;;;5010822;28;20013;-73
2021/04/14 00:34:45;;;;;;;0.68;0.45;;;4.20;87.90;;;;;;5023839;28;20185;-74
2021/04/14 00:37:11;;;;;;;1.35;0.50;;;4.20;87.80;;;;;;5006010;28;20028;-73
2021/04/14 00:39:36;;;;;;;1.08;0.40;;;4.20;88.00;;;;;;5008188;28;20089;-73
2021/04/14 00:42:02;;;;;;;2.10;0.60;;;4.20;88.40;;;;;;5009490;28;20071;-74
2021/04/14 00:44:28;;;;;;;0.40;0.30;;;4.20;88.40;;;;;;5009333;28;20020;-73
2021/04/14 00:46:53;;;;;;;0.68;0.40;;;4.20;88.30;;;;;;5006017;28;20010;-73
2021/04/14 00:49:19;;;;;;;2.00;0.50;;;4.20;88.40;;;;;;5001950;28;20052;-73
2021/04/14 00:51:46;;;;;;;0.38;0.20;;;4.20;88.30;;;;;;5009373;28;20430;-73
2021/04/14 00:54:12;;;;;;;0.47;0.20;;;4.20;88.10;;;;;;5009195;28;20269;-73
2021/04/14 00:56:38;;;;;;;1.27;0.40;;;4.20;88.20;;;;;;5009071;28;20042;-73
2021/04/14 00:59:03;;;;;;;0.30;0.30;;;4.20;88.10;;;;;;5022148;28;20033;-73
2021/04/14 01:01:29;;;;;;;0.68;0.40;;;4.20;88.10;;;;;;5005213;28;20021;-73
2021/04/14 01:03:55;;;;;;;0.52;0.30;;;4.10;88.10;;;;;;5022025;28;20073;-73
2021/04/14 01:06:23;;;;;;;0.77;0.40;;;4.10;88.30;;;;;;5008047;28;20014;-73
2021/04/14 01:08:49;;;;;;;1.08;0.43;;;4.10;88.60;;;;;;5004598;28;20014;-73
2021/04/14 01:11:15;;;;;;;1.08;0.35;;;4.10;88.60;;;;;;5010403;28;20319;-73
2021/04/14 01:13:41;;;;;;;1.85;0.40;;;4.10;88.90;;;;;;5008821;28;20068;-73
2021/04/14 01:16:06;;;;;;;0.47;0.40;;;4.10;88.80;;;;;;5005194;28;20307;-73
2021/04/14 01:18:34;;;;;;;1.45;0.70;;;4.10;88.80;;;;;;5000752;28;20014;-73
2021/04/14 01:21:00;;;;;;;1.25;0.43;;;4.00;88.90;;;;;;5010080;28;20025;-73
2021/04/14 01:23:27;;;;;;;0.20;0.20;;;4.00;88.70;;;;;;5023691;28;20010;-73
2021/04/14 01:25:53;;;;;;;0.80;0.40;;;4.10;88.90;;;;;;5025567;28;20014;-73
2021/04/14 01:28:23;;;;;;;0.85;0.30;;;4.10;88.70;;;;;;5038470;28;20342;-73
2021/04/14 01:30:53;;;;;;;0.85;0.20;;;4.10;88.70;;;;;;5012655;28;20017;-73
2021/04/14 01:33:19;;;;;;;0.82;0.40;;;4.10;88.70;;;;;;5009483;28;20016;-73
2021/04/14 01:35:44;;;;;;;0.28;0.28;;;4.10;88.70;;;;;;5008927;28;20080;-73
2021/04/14 01:38:10;;;;;;;0.40;0.28;;;4.00;88.90;;;;;;5005265;28;20033;-73
2021/04/14 01:40:36;;;;;;;0.25;0.25;;;4.10;89.30;;;;;;5005398;28;20045;-74
2021/04/14 01:43:02;;;;;;;0.30;0.28;;;4.10;89.20;;;;;;4991915;28;20238;-75
2021/04/14 01:45:33;;;;;;;0.43;0.30;;;4.10;89.10;;;;;;4992462;28;20037;-73
2021/04/14 01:47:59;;;;;;;0.57;0.30;;;4.10;88.90;;;;;;5009563;28;20022;-74
2021/04/14 01:50:25;;;;;;;0.20;0.20;;;4.10;88.70;;;;;;5009696;28;20032;-73
2021/04/14 01:52:50;;;;;;;0.10;0.10;;;4.10;88.60;;;;;;5025979;28;20013;-73
2021/04/14 01:55:16;;;;;;;0.22;0.20;;;4.00;88.60;;;;;;5026185;28;20038;-74
2021/04/14 01:57:45;;;;;;;0.45;0.30;;;4.00;88.80;;;;;;5010011;28;20014;-74
2021/04/14 02:00:31;;;;;;;0.28;0.20;;;4.00;88.70;;;;;;5010786;28;20227;-74
2021/04/14 02:02:57;;;;;;;0.75;0.45;;;3.90;88.60;;;;;;4999984;28;20010;-74
2021/04/14 02:05:26;;;;;;;0.35;0.20;;;4.00;89.00;;;;;;5027017;28;20006;-74
2021/04/14 02:07:52;;;;;;;0.20;0.20;;;4.00;88.90;;;;;;5010173;28;20052;-74
2021/04/14 02:10:17;;;;;;;0.20;0.20;;;4.00;88.80;;;;;;5011812;28;20048;-74
2021/04/14 02:12:43;;;;;;;0.20;0.20;;;4.00;88.40;;;;;;5009577;28;20002;-74
2021/04/14 02:15:12;;;;;;;0.20;0.20;;;4.00;88.70;;;;;;5025032;28;20104;-74
2021/04/14 02:17:37;;;;;;;0.55;0.10;;;4.00;88.80;;;;;;5009181;28;20018;-74
2021/04/14 02:20:05;;;;;;;1.15;0.20;;;3.90;88.40;;;;;;5008974;28;20018;-74
2021/04/14 02:22:31;;;;;;;0.10;0.10;;;3.90;88.40;;;;;;5009453;28;20014;-74
2021/04/14 02:24:57;;;;;;;0.20;0.20;;;3.90;88.40;;;;;;5025357;28;20048;-74
2021/04/14 02:27:22;;;;;;;0.13;0.10;;;3.90;88.50;;;;;;4992941;28;20009;-73
2021/04/14 02:29:48;;;;;;;0.52;0.20;;;4.00;88.50;;;;;;5022715;28;20231;-74
2021/04/14 02:32:14;;;;;;;0.82;0.45;;;3.90;88.50;;;;;;4992897;28;20014;-73
2021/04/14 02:34:40;;;;;;;0.20;0.20;;;4.00;88.40;;;;;;5008738;28;20073;-73
2021/04/14 02:37:05;;;;;;;0.68;0.32;;;3.90;88.20;;;;;;5008979;28;20022;-73
2021/04/14 02:39:31;;;;;;;0.25;0.22;;;3.90;88.30;;;;;;5009228;28;20006;-73
2021/04/14 02:41:56;;;;;;;0.38;0.20;;;4.00;88.20;;;;;;5008946;28;20021;-73
2021/04/14 02:44:22;;;;;;;0.73;0.30;;;3.90;88.10;;;;;;5008917;28;20072;-74
2021/04/14 02:46:48;;;;;;;0.65;0.43;;;4.00;88.20;;;;;;5008773;28;20021;-73
2021/04/14 02:49:13;;;;;;;0.20;0.15;;;4.00;88.40;;;;;;5008780;28;20030;-74
2021/04/14 02:51:39;;;;;;;0.47;0.20;;;3.90;88.30;;;;;;5008174;28;20013;-74
2021/04/14 02:54:04;;;;;;;0.22;0.20;;;3.90;88.60;;;;;;5008671;28;20108;-74
2021/04/14 02:56:30;;;;;;;0.50;0.30;;;3.90;88.80;;;;;;5004468;28;20085;-74
2021/04/14 02:58:56;;;;;;;0.25;0.25;;;3.90;88.80;;;;;;4987728;28;20026;-74
2021/04/14 03:01:21;;;;;;;0.20;0.20;;;3.90;88.80;;;;;;5004600;28;20014;-73
2021/04/14 03:03:47;;;;;;;0.20;0.20;;;3.80;88.90;;;;;;4978222;28;20022;-74
2021/04/14 03:06:13;;;;;;;0.10;0.10;;;3.80;89.20;;;;;;4983611;28;20002;-74
2021/04/14 03:08:39;;;;;;;0.22;0.20;;;3.70;89.30;;;;;;4994160;28;20026;-74
2021/04/14 03:11:04;;;;;;;0.45;0.38;;;3.70;89.80;;;;;;4973517;28;20018;-73
2021/04/14 03:13:30;;;;;;;0.30;0.20;;;3.70;89.50;;;;;;4987958;28;20014;-73
2021/04/14 03:15:56;;;;;;;0.20;0.20;;;3.70;89.50;;;;;;4971362;28;20061;-74
2021/04/14 03:18:21;;;;;;;0.30;0.20;;;3.70;89.60;;;;;;4999941;28;20025;-73
2021/04/14 03:20:47;;;;;;;1.42;0.30;;;3.60;89.60;;;;;;4984155;28;20014;-73
2021/04/14 03:23:13;;;;;;;2.03;0.30;;;3.60;90.00;;;;;;5019011;28;20022;-73
2021/04/14 03:25:39;;;;;;;0.20;0.20;;;3.60;90.10;;;;;;5003761;28;20014;-73
2021/04/14 03:28:05;;;;;;;0.20;0.20;;;3.60;90.10;;;;;;5020290;28;20272;-74
2021/04/14 03:30:30;;;;;;;0.20;0.20;;;3.60;90.40;;;;;;4987736;28;20045;-74
2021/04/14 03:32:56;;;;;;;0.32;0.20;;;3.60;90.40;;;;;;4988423;28;20117;-73
2021/04/14 03:35:22;;;;;;;0.20;0.20;;;3.60;90.30;;;;;;4989359;28;20354;-74
2021/04/14 03:37:48;;;;;;;0.30;0.20;;;3.60;90.30;;;;;;4989857;28;20010;-74
2021/04/14 03:40:14;;;;;;;0.20;0.20;;;3.60;90.50;;;;;;4988913;28;20041;-73
2021/04/14 03:42:40;;;;;;;0.20;0.20;;;3.60;90.50;;;;;;4989519;28;20014;-74
2021/04/14 03:45:12;;;;;;;0.20;0.20;;;3.70;90.70;;;;;;5005702;28;20006;-74
2021/04/14 03:47:38;;;;;;;1.00;0.40;;;3.70;90.50;;;;;;4990386;28;20014;-73
2021/04/14 03:50:05;;;;;;;1.23;0.50;;;3.60;90.30;;;;;;4991407;28;20094;-73
2021/04/14 03:52:31;;;;;;;2.38;0.98;;;3.20;90.20;;;;;;4996294;28;20006;-73
2021/04/14 03:54:56;;;;;;;2.00;0.88;;;2.80;90.40;;;;;;4971479;28;20321;-73
2021/04/14 03:57:22;;;;;;;3.83;0.60;;;2.60;90.60;;;;;;4971984;28;20069;-73
2021/04/14 03:59:48;;;;;;;0.73;0.68;;;2.50;90.90;;;;;;5013343;28;20018;-73
2021/04/14 04:02:13;;;;;;;1.77;0.90;;;2.50;91.30;;;;;;5013996;28;20014;-73
2021/04/14 04:04:39;;;;;;;1.42;1.00;;;2.50;91.40;;;;;;5002747;28;20034;-73
2021/04/14 04:07:04;;;;;;;1.33;0.90;;;2.30;91.20;;;;;;4994125;28;20072;-73
2021/04/14 04:09:30;;;;;;;1.08;0.63;;;2.20;91.30;;;;;;4993750;28;20032;-73
2021/04/14 04:11:56;;;;;;;0.77;0.68;;;2.20;91.60;;;;;;4991105;28;20338;-73
2021/04/14 04:14:23;;;;;;;1.85;0.60;;;2.20;91.90;;;;;;4991570;28;20359;-73
2021/04/14 04:16:49;;;;;;;2.28;0.93;;;2.20;91.90;;;;;;5007358;28;20015;-73
2021/04/14 04:19:14;;;;;;;3.22;0.98;;;2.10;92.10;;;;;;5007558;28;20022;-73
2021/04/14 04:21:40;;;;;;;1.52;0.90;;;2.10;92.20;;;;;;4991115;28;20011;-73
2021/04/14 04:24:06;;;;;;;1.70;0.90;;;2.10;92.20;;;;;;5007138;28;20014;-73
2021/04/14 04:26:32;;;;;;;1.95;1.20;;;2.10;92.20;;;;;;4991606;28;20077;-72
2021/04/14 04:28:57;;;;;;;1.33;0.88;;;2.10;92.10;;;;;;4990332;28;20081;-72
2021/04/14 04:31:23;;;;;;;1.35;0.80;;;2.10;92.20;;;;;;5007334;28;20014;-72
2021/04/14 04:33:49;;;;;;;2.00;0.90;;;2.10;92.20;;;;;;5006608;28;20010;-72
2021/04/14 04:36:14;;;;;;;1.85;0.90;;;2.10;92.20;;;;;;5006621;28;20061;-73
2021/04/14 04:38:40;;;;;;;2.58;0.65;;;2.20;92.20;;;;;;5007391;28;20041;-73
2021/04/14 04:41:05;;;;;;;1.90;0.80;;;2.30;92.10;;;;;;5026792;28;20025;-73
2021/04/14 04:43:31;;;;;;;1.30;0.70;;;2.30;92.00;;;;;;4999086;28;20085;-74
2021/04/14 04:45:57;;;;;;;0.70;0.60;;;2.30;92.00;;;;;;4970067;28;20065;-74
2021/04/14 04:48:23;;;;;;;0.93;0.50;;;2.40;92.10;;;;;;5017278;28;20010;-74
2021/04/14 04:50:49;;;;;;;0.60;0.50;;;2.50;91.90;;;;;;4989765;28;20222;-74
2021/04/14 04:53:16;;;;;;;0.63;0.60;;;2.50;91.90;;;;;;5006384;28;20025;-74
2021/04/14 04:55:43;;;;;;;0.73;0.40;;;2.60;92.00;;;;;;5003990;28;20395;-74
2021/04/14 04:58:08;;;;;;;2.22;0.65;;;2.70;91.80;;;;;;4994844;28;20022;-73
2021/04/14 05:00:34;;;;;;;0.45;0.40;;;2.80;91.70;;;;;;4997193;28;20325;-74
2021/04/14 05:03:00;;;;;;;1.00;0.40;;;2.80;91.70;;;;;;5015583;28;20021;-74
2021/04/14 05:05:27;;;;;;;0.40;0.40;;;2.90;91.70;;;;;;5007679;28;20061;-74
2021/04/14 05:07:53;;;;;;;0.20;0.20;;;3.00;91.60;;;;;;4990242;28;20093;-73
2021/04/14 05:10:19;;;;;;;0.65;0.30;;;3.10;91.50;;;;;;5012471;28;20021;-74
2021/04/14 05:12:47;;;;;;;0.68;0.38;;;3.20;91.50;;;;;;4982483;28;20007;-74
2021/04/14 05:15:13;;;;;;;1.58;0.47;;;3.30;91.40;;;;;;5002751;28;20015;-74
2021/04/14 05:17:39;;;;;;;1.17;0.50;;;3.30;91.30;;;;;;4999054;28;20331;-74
2021/04/14 05:20:05;;;;;;;0.77;0.57;;;3.40;91.20;;;;;;5003030;28;20316;-74
2021/04/14 05:22:31;;;;;;;2.63;1.00;;;3.40;91.10;;;;;;5003046;28;20015;-74
2021/04/14 05:24:57;;;;;;;2.50;1.00;;;3.40;91.00;;;;;;5030989;28;20096;-74
2021/04/14 05:27:23;;;;;;;5.57;1.88;;;3.50;91.10;;;;;;4989715;28;20018;-76
2021/04/14 05:29:49;;;;;;;2.40;1.10;;;3.60;90.90;;;;;;4997500;28;20030;-74
2021/04/14 05:32:15;;;;;;;1.88;0.95;;;3.60;90.40;;;;;;5002386;28;20052;-74
2021/04/14 05:34:41;;;;;;;2.17;1.20;;;3.60;90.30;;;;;;4974740;28;21120;-74
2021/04/14 05:37:07;;;;;;;2.42;1.10;;;3.60;90.10;;;;;;4991820;28;20025;-73
2021/04/14 05:39:32;;;;;;;1.67;1.00;;;3.80;90.10;;;;;;4978084;28;20105;-74
2021/04/14 05:41:58;;;;;;;1.63;0.82;;;4.00;89.40;;;;;;4977894;28;20145;-74
2021/04/14 05:44:23;;;;;;;2.72;0.85;;;4.30;88.70;;;;;;4985477;28;20057;-74
2021/04/14 05:46:49;;;;;;;3.35;0.82;;;4.40;88.00;;;;;;5001620;28;20026;-74
2021/04/14 05:49:15;;;;;;;1.15;0.60;;;4.40;87.70;;;;;;5003730;28;21551;-74
2021/04/14 05:51:40;;;;;;;1.58;0.82;;;4.40;87.60;;;;;;5021683;28;20034;-74
2021/04/14 05:54:06;;;;;;;0.95;0.63;;;4.40;88.10;;;;;;5001096;28;20223;-74
2021/04/14 05:56:31;;;;;;;5.72;2.47;;;4.50;88.40;;;;;;5013877;28;20163;-73
2021/04/14 05:58:57;;;;;;;2.38;1.13;;;4.50;89.00;;;;;;4992011;28;20026;-73
2021/04/14 06:01:24;;;;;;;1.95;1.20;;;4.60;89.90;;;;;;5013695;28;20037;-73
2021/04/14 06:03:51;;;;;;;2.92;1.35;;;4.60;90.20;;;;;;5019177;28;20165;-72
2021/04/14 06:06:17;;;;;;;2.30;1.35;;;4.70;90.40;;;;;;4984908;28;20021;-73
2021/04/14 06:08:43;;;;;;;5.15;1.33;;;4.80;90.30;;;;;;4999471;28;20038;-73
2021/04/14 06:11:08;;;;;;;4.10;1.45;;;4.80;90.40;;;;;;5011756;28;20032;-73
2021/04/14 06:13:34;;;;;;;2.20;1.10;;;5.00;90.30;;;;;;4960685;28;20028;-73
2021/04/14 06:16:00;;;;;;;1.52;0.80;;;5.00;90.30;;;;;;4968014;28;20026;-73
2021/04/14 06:18:26;;;;;;;3.60;1.27;;;5.20;90.20;;;;;;5000406;28;20022;-73
2021/04/14 06:20:51;;;;;;;1.45;1.10;;;5.30;89.60;;;;;;4985164;28;20052;-73
2021/04/14 06:23:18;;;;;;;1.17;0.90;;;5.40;89.70;;;;;;5001520;28;20028;-73
2021/04/14 06:26:38;;;;;;;3.45;0.90;;;5.60;89.10;;;;;;4969041;28;20021;-73
2021/04/14 06:28:30;;;;;;;1.75;1.00;;;5.70;87.90;;;;;;4980481;28;20106;-73
2021/04/14 06:30:56;;;;;;;2.00;0.90;;;5.80;84.60;;;;;;5000904;28;20022;-73
2021/04/14 06:33:23;;;;;;;1.55;0.85;;;5.90;81.00;;;;;;4951697;28;21692;-73
2021/04/14 06:35:48;;;;;;;2.28;0.80;;;6.10;76.50;;;;;;4982666;28;20668;-73
2021/04/14 06:38:17;;;;;;;3.15;1.08;;;6.10;73.30;;;;;;4967763;28;20401;-73
2021/04/14 06:43:42;;;;;;;1.60;0.55;;;6.30;73.00;;;;;;4983173;28;20068;-73
2021/04/14 06:46:14;;;;;;;1.27;0.50;;;6.30;70.20;;;;;;4977800;28;20048;-73
2021/04/14 06:49:17;;;;;;;0.60;0.40;;;6.50;70.00;;;;;;4959034;28;20129;-73
2021/04/14 06:52:07;;;;;;;1.40;0.43;;;6.70;68.90;;;;;;4975455;28;20034;-73
2021/04/14 06:54:56;;;;;;;1.15;0.50;;;7.50;66.50;;;;;;4971133;28;20049;-73
2021/04/14 06:57:30;;;;;;;1.15;0.40;;;9.00;59.00;;;;;;4995050;28;20114;-74
2021/04/14 07:00:04;;;;;;;0.68;0.30;;;9.60;57.30;;;;;;4971917;28;20668;-74
2021/04/14 07:02:45;;;;;;;3.53;0.50;;;10.10;57.00;;;;;;4965228;28;20021;-73
2021/04/14 07:05:19;;;;;;;1.05;0.40;;;10.50;55.30;;;;;;4964540;28;20026;-74
2021/04/14 07:07:45;;;;;;;2.15;0.50;;;11.00;53.80;;;;;;4987475;28;20056;-73
2021/04/14 07:10:30;;;;;;;3.05;0.50;;;11.30;52.70;;;;;;4959699;28;20032;-76
2021/04/14 07:12:59;;;;;;;1.33;0.47;;;11.60;52.60;;;;;;4989092;28;20022;-76
2021/04/14 07:15:25;;;;;;;0.80;0.40;;;11.00;51.80;;;;;;4971035;28;21022;-74
2021/04/14 07:17:53;;;;;;;0.68;0.40;;;11.10;51.40;;;;;;4954287;28;20020;-74
2021/04/14 07:20:28;;;;;;;0.63;0.40;;;11.00;50.40;;;;;;4987158;28;20099;-74
2021/04/14 07:23:06;;;;;;;0.98;0.40;;;11.10;48.70;;;;;;4927125;28;20350;-74
2021/04/14 07:25:42;;;;;;;0.20;0.20;;;11.30;47.40;;;;;;4986011;28;20330;-74
2021/04/14 07:28:26;;;;;;;0.57;0.32;;;11.50;47.50;;;;;;4933065;28;20079;-74
2021/04/14 07:31:24;;;;;;;0.25;0.25;;;11.60;47.90;;;;;;4971676;28;20026;-74
2021/04/14 07:33:57;;;;;;;0.30;0.30;;;12.00;46.80;;;;;;4988989;28;20451;-74
2021/04/14 07:36:23;;;;;;;0.32;0.30;;;12.50;44.60;;;;;;4959506;28;21569;-74
2021/04/14 07:39:19;;;;;;;2.40;0.40;;;12.50;44.00;;;;;;4993949;28;20120;-74
2021/04/14 07:41:57;;;;;;;1.35;0.50;;;12.50;43.10;;;;;;4996826;28;20029;-74
2021/04/14 07:44:32;;;;;;;2.17;0.40;;;12.20;44.00;;;;;;4986055;28;20033;-73
2021/04/14 07:46:58;;;;;;;0.65;0.30;;;12.30;44.30;;;;;;4982016;28;20063;-74
2021/04/14 07:49:25;;;;;;;0.50;0.30;;;12.40;44.40;;;;;;4932593;28;20099;-74
2021/04/14 07:51:51;;;;;;;1.38;0.50;;;12.70;44.50;;;;;;4953619;28;20041;-75
2021/04/14 07:54:18;;;;;;;0.98;0.30;;;12.60;43.30;;;;;;4913308;28;21012;-72
2021/04/14 07:56:46;;;;;;;0.70;0.30;;;12.60;42.60;;;;;;4929145;28;20053;-72
2021/04/14 07:59:16;;;;;;;0.20;0.20;;;12.70;41.60;;;;;;4924064;28;20033;-75
2021/04/14 08:02:12;;;;;;;0.68;0.40;;;12.80;41.30;;;;;;4904777;28;20100;-76
2021/04/14 08:04:42;;;;;;;0.40;0.30;;;12.50;42.40;;;;;;4845054;28;20185;-75
2021/04/14 08:07:11;;;;;;;0.60;0.40;;;13.00;42.40;;;;;;4900352;28;21205;-73
2021/04/14 08:10:05;;;;;;;0.95;0.35;;;12.70;42.30;;;;;;4859843;28;20157;-72
2021/04/14 08:12:36;;;;;;;1.50;0.40;;;12.40;43.40;;;;;;4885431;28;20547;-74
2021/04/14 08:15:12;;;;;;;0.45;0.30;;;12.40;43.20;;;;;;4845758;28;20057;-73
2021/04/14 08:17:37;;;;;;;0.70;0.30;;;12.40;42.70;;;;;;4866167;28;21012;-75
2021/04/14 08:20:06;;;;;;;0.20;0.20;;;12.00;43.30;;;;;;4895587;28;20113;-74
2021/04/14 08:22:32;;;;;;;1.08;0.38;;;12.00;44.00;;;;;;4886406;28;20133;-75
2021/04/14 08:25:02;;;;;;;0.68;0.40;;;12.30;42.70;;;;;;4863580;28;20252;-76
2021/04/14 08:27:32;;;;;;;0.47;0.30;;;12.50;41.70;;;;;;4858256;28;20031;-74
2021/04/14 08:30:07;;;;;;;1.23;0.50;;;12.90;41.20;;;;;;4890412;28;20050;-74
2021/04/14 08:32:38;;;;;;;0.50;0.40;;;12.90;38.50;;;;;;4870583;28;20065;-74
2021/04/14 08:35:15;;;;;;;0.30;0.30;;;13.20;39.30;;;;;;4854147;28;20207;-76
2021/04/14 08:37:41;;;;;;;1.35;0.40;;;13.60;38.50;;;;;;4842596;28;20206;-74
2021/04/14 08:40:21;;;;;;;1.17;0.50;;;13.80;41.60;;;;;;4840041;28;20429;-74
2021/04/14 08:42:47;;;;;;;0.52;0.40;;;13.80;45.10;;;;;;4888188;28;20369;-74
2021/04/14 08:45:25;;;;;;;1.33;0.40;;;14.50;44.30;;;;;;4872005;28;20229;-74
2021/04/14 08:48:03;;;;;;;0.40;0.30;;;14.80;43.30;;;;;;4885253;28;20329;-74
2021/04/14 08:50:34;;;;;;;1.35;0.60;;;15.10;43.30;;;;;;4911856;28;20069;-74
2021/04/14 08:53:01;;;;;;;;;;;15.10;42.50;;;;;;4912694;28;20380;-76
2021/04/14 08:55:27;;;;;;;1.38;0.40;;;14.90;42.30;;;;;;4901776;28;20082;-77
2021/04/14 08:57:54;;;;;;;0.90;0.40;;;14.70;43.10;;;;;;4927238;28;20025;-80
2021/04/14 09:00:20;;;;;;;1.13;0.40;;;14.40;44.40;;;;;;4947179;28;20063;-76
2021/04/14 09:02:46;;;;;;;0.55;0.40;;;15.00;44.20;;;;;;4952987;28;20115;-77
2021/04/14 09:05:15;;;;;;;1.17;0.73;;;14.90;43.20;;;;;;4951222;28;20660;-78
2021/04/14 09:07:40;;;;;;;0.85;0.52;;;15.30;42.60;;;;;;4930716;28;20195;-78
2021/04/14 09:10:09;;;;;;;1.08;0.60;;;15.60;42.60;;;;;;4946703;28;20057;-77
2021/04/14 09:12:56;;;;;;;1.90;0.43;;;15.30;43.20;;;;;;4917730;28;20428;-77
2021/04/14 09:15:22;;;;;;;0.55;0.40;;;15.00;43.40;;;;;;4899964;28;20684;-77
2021/04/14 09:17:58;;;;;;;1.88;0.80;;;14.90;44.70;;;;;;4930524;28;20384;-77
2021/04/14 09:20:27;;;;;;;1.40;0.60;;;15.00;42.90;;;;;;4938509;28;20017;-77
2021/04/14 09:23:09;;;;;;;1.17;0.50;;;14.50;44.80;;;;;;4933913;28;20080;-77
2021/04/14 09:25:45;;;;;;;2.55;0.60;;;14.30;46.10;;;;;;4962662;28;20220;-76
2021/04/14 09:28:30;;;;;;;0.95;0.50;;;14.40;44.90;;;;;;4959018;28;20034;-76
2021/04/14 09:31:06;;;;;;;1.08;0.50;;;13.90;46.50;;;;;;4947605;28;20316;-77
2021/04/14 09:33:46;;;;;;;1.85;0.63;;;13.80;47.00;;;;;;4947900;28;20041;-76
2021/04/14 09:36:13;;;;;;;0.43;0.40;;;14.30;45.10;;;;;;4932653;28;20022;-76
2021/04/14 09:38:51;;;;;;;0.60;0.43;;;14.40;45.50;;;;;;4921407;28;20182;-76
2021/04/14 09:41:43;;;;;;;0.85;0.52;;;14.00;46.60;;;;;;4942346;28;20014;-76
2021/04/14 09:44:33;;;;;;;0.93;0.38;;;14.20;47.50;;;;;;4932526;28;21125;-77
2021/04/14 09:47:28;;;;;;;0.63;0.40;;;14.80;45.60;;;;;;4959346;28;20014;-77
2021/04/14 09:49:59;;;;;;;0.82;0.32;;;14.80;43.40;;;;;;4943937;28;20045;-79
2021/04/14 09:52:46;;;;;;;1.25;0.70;;;14.90;40.70;;;;;;4909223;28;20022;-76
2021/04/14 09:55:18;;;;;;;0.70;0.40;;;14.90;44.30;;;;;;4925179;28;20053;-74
2021/04/14 09:57:46;;;;;;;0.28;0.28;;;15.10;43.30;;;;;;4951354;28;20041;-75
2021/04/14 10:00:21;;;;;;;1.27;0.50;;;15.30;44.20;;;;;;4919948;28;20022;-73
2021/04/14 10:02:47;;;;;;;1.15;0.65;;;15.00;43.30;;;;;;4956119;28;20113;-76
2021/04/14 10:05:14;;;;;;;0.80;0.50;;;14.30;45.10;;;;;;4941466;28;20026;-75
2021/04/14 10:07:41;;;;;;;0.95;0.68;;;14.60;45.20;;;;;;4921425;28;20022;-76
2021/04/14 10:10:25;;;;;;;1.20;0.60;;;14.10;44.00;;;;;;4933310;28;20119;-75
2021/04/14 10:12:54;;;;;;;1.80;0.63;;;14.00;46.20;;;;;;4941219;28;20032;-77
2021/04/14 10:15:33;;;;;;;1.00;0.50;;;14.00;45.70;;;;;;4931062;28;20124;-76
2021/04/14 10:18:03;;;;;;;1.38;0.55;;;13.70;48.20;;;;;;4955255;28;20136;-77
2021/04/14 10:20:35;;;;;;;0.70;0.40;;;14.20;47.80;;;;;;4940688;28;20081;-77
2021/04/14 10:23:03;;;;;;;0.40;0.40;;;14.10;46.00;;;;;;4945789;28;20330;-78
2021/04/14 10:25:36;;;;;;;1.73;0.50;;;13.70;45.90;;;;;;4942355;28;20052;-79
2021/04/14 10:28:21;;;;;;;0.60;0.50;;;13.50;47.40;;;;;;4942554;28;20088;-78
2021/04/14 10:31:10;;;;;;;0.55;0.40;;;13.60;48.00;;;;;;4947410;28;20018;-76
2021/04/14 10:33:37;;;;;;;0.25;0.25;;;14.20;46.70;;;;;;4949313;28;20361;-76
2021/04/14 10:36:12;;;;;;;0.40;0.32;;;13.80;46.10;;;;;;4920629;28;20412;-76
2021/04/14 10:38:38;;;;;;;0.93;0.65;;;13.90;46.10;;;;;;4936637;28;20021;-76
2021/04/14 10:41:33;;;;;;;1.13;0.50;;;13.70;46.40;;;;;;4926813;28;20123;-78
2021/04/14 10:43:59;;;;;;;1.38;0.70;;;13.90;45.40;;;;;;4896652;28;20144;-80
2021/04/14 10:46:29;;;;;;;3.08;0.80;;;13.90;46.00;;;;;;4862568;28;20027;-78
2021/04/14 10:49:02;;;;;;;1.00;0.50;;;13.40;46.10;;;;;;4887155;28;20068;-78
2021/04/14 10:51:49;;;;;;;1.40;0.60;;;13.50;46.50;;;;;;4876058;28;20023;-78
2021/04/14 10:54:16;;;;;;;1.92;0.70;;;13.50;46.70;;;;;;4850508;28;20027;-77
2021/04/14 10:56:42;;;;;;;1.33;0.70;;;13.00;47.60;;;;;;4855586;28;20293;-77
2021/04/14 10:59:11;;;;;;;2.10;0.63;;;13.20;47.40;;;;;;4852039;28;20446;-78
2021/04/14 11:01:44;;;;;;;2.00;0.80;;;12.90;48.20;;;;;;4889592;28;20031;-75
2021/04/14 11:04:16;;;;;;;1.08;0.50;;;12.50;47.70;;;;;;4857152;28;21370;-79
2021/04/14 11:06:43;;;;;;;1.48;0.70;;;11.70;48.70;;;;;;4850159;28;21271;-74
2021/04/14 11:09:09;;;;;;;1.63;0.60;;;11.00;51.20;;;;;;4842969;28;20305;-73
2021/04/14 11:11:35;;;;;;;1.10;0.60;;;10.70;52.20;;;;;;4818190;28;20019;-74
2021/04/14 11:14:01;;;;;;;1.50;0.70;;;10.80;53.00;;;;;;4854741;28;20236;-72
2021/04/14 11:16:27;;;;;;;2.17;0.70;;;10.70;52.60;;;;;;4843461;28;20291;-70
2021/04/14 11:18:53;;;;;;;1.15;0.45;;;10.60;53.60;;;;;;4832976;28;20333;-70
2021/04/14 11:21:28;;;;;;;1.30;0.50;;;10.10;53.90;;;;;;4879049;28;20710;-71
2021/04/14 11:24:09;;;;;;;2.28;0.70;;;10.10;53.80;;;;;;4936453;28;20041;-72
2021/04/14 11:26:52;;;;;;;1.40;0.40;;;10.20;54.40;;;;;;4930813;28;20026;-73
2021/04/14 11:29:23;;;;;;;0.88;0.43;;;10.30;53.80;;;;;;4915464;28;20046;-74
2021/04/14 11:31:49;;;;;;;0.98;0.50;;;10.30;53.10;;;;;;4912297;28;20095;-76
2021/04/14 11:34:20;;;;;;;1.20;0.50;;;10.30;53.60;;;;;;4898030;28;20930;-75
2021/04/14 11:37:04;;;;;;;0.57;0.40;;;10.10;53.60;;;;;;4878421;28;20116;-74
2021/04/14 11:39:53;;;;;;;0.73;0.40;;;10.20;53.30;;;;;;4924995;28;20806;-78
2021/04/14 11:42:23;;;;;;;2.15;0.65;;;10.40;52.70;;;;;;4936693;28;20319;-77
2021/04/14 11:44:52;;;;;;;0.55;0.30;;;10.30;52.70;;;;;;4941775;28;20030;-74
2021/04/14 11:47:25;;;;;;;1.77;0.65;;;10.30;54.30;;;;;;4933353;28;20671;-76
2021/04/14 11:49:51;;;;;;;1.42;0.50;;;10.30;54.50;;;;;;4931712;28;20038;-76
2021/04/14 11:52:20;;;;;;;2.55;0.52;;;10.40;54.20;;;;;;4931619;28;20305;-76
2021/04/14 11:54:45;;;;;;;0.88;0.57;;;10.40;54.50;;;;;;4939009;28;20101;-74
2021/04/14 11:57:11;;;;;;;2.65;0.75;;;10.40;54.40;;;;;;4942450;28;20054;-75
2021/04/14 11:59:37;;;;;;;1.30;0.60;;;10.40;54.20;;;;;;4950504;28;20022;-76
2021/04/14 12:02:18;;;;;;;1.73;0.60;;;10.40;52.80;;;;;;4930486;28;20206;-76
2021/04/14 12:04:53;;;;;;;0.60;0.40;;;9.90;53.90;;;;;;4935035;28;20184;-76
2021/04/14 12:07:19;;;;;;;2.55;0.63;;;9.70;53.70;;;;;;4918286;28;20029;-75
2021/04/14 12:09:45;;;;;;;0.47;0.30;;;9.90;54.50;;;;;;4948391;28;20026;-75
2021/04/14 12:12:11;;;;;;;0.98;0.40;;;9.90;54.90;;;;;;4931119;28;20065;-75
2021/04/14 12:14:36;;;;;;;0.88;0.47;;;10.00;55.30;;;;;;4934435;28;20598;-76
2021/04/14 12:17:02;;;;;;;1.73;0.75;;;9.90;55.10;;;;;;4940685;28;20208;-75
2021/04/14 12:19:28;;;;;;;1.65;0.60;;;9.70;55.30;;;;;;4950858;28;20837;-75
2021/04/14 12:21:54;;;;;;;1.02;0.43;;;9.80;55.40;;;;;;4907101;28;20028;-78
2021/04/14 12:24:20;;;;;;;3.15;1.40;;;9.90;55.30;;;;;;4934230;28;20311;-73
2021/04/14 12:26:45;;;;;;;2.03;0.60;;;10.20;54.00;;;;;;4932378;28;20018;-77
2021/04/14 12:29:12;;;;;;;1.20;0.60;;;10.30;54.30;;;;;;4934822;28;20201;-76
2021/04/14 12:31:37;;;;;;;0.47;0.40;;;10.10;55.40;;;;;;4929167;28;20041;-75
2021/04/14 12:34:04;;;;;;;1.75;0.50;;;10.20;56.10;;;;;;4923384;28;20281;-72
2021/04/14 12:36:30;;;;;;;2.05;0.40;;;10.20;54.60;;;;;;4930102;28;20031;-72
2021/04/14 12:38:55;;;;;;;0.60;0.30;;;10.40;54.50;;;;;;4911636;28;20289;-72
2021/04/14 12:41:21;;;;;;;0.60;0.38;;;10.40;54.40;;;;;;4914857;28;20083;-72
2021/04/14 12:43:47;;;;;;;1.15;0.50;;;10.30;54.00;;;;;;4969016;28;20037;-72
2021/04/14 12:46:12;;;;;;;0.82;0.30;;;10.10;54.20;;;;;;4937076;28;20088;-73
2021/04/14 12:48:40;;;;;;;0.55;0.30;;;10.20;54.30;;;;;;4944427;28;20283;-73
2021/04/14 12:51:27;;;;;;;0.82;0.38;;;10.30;53.90;;;;;;4953293;28;20214;-73
2021/04/14 12:54:06;;;;;;;0.85;0.43;;;10.20;53.70;;;;;;4953035;28;20874;-72
2021/04/14 12:56:33;;;;;;;1.27;0.45;;;10.30;54.40;;;;;;4962136;28;20244;-73
2021/04/14 12:59:27;;;;;;;2.17;0.70;;;10.30;54.80;;;;;;4957673;28;20026;-73
2021/04/14 13:01:55;;;;;;;0.85;0.52;;;10.10;54.70;;;;;;4967379;28;20368;-72
2021/04/14 13:04:30;;;;;;;2.25;0.50;;;10.30;55.50;;;;;;4973494;28;20019;-71
2021/04/14 13:06:59;;;;;;;0.73;0.38;;;10.30;54.10;;;;;;4979859;28;20029;-72